WMKJ/JHB METAR and TAF weather

Enter ICAO airport designator
Station Type Date Time Source
WMKJ METAR 2019/06/27 04:00 UTC NOAA

WMKJ 270400Z 21004KT 160V320 9999 FEW017CB SCT140 BKN280 31/27 Q1011


Station Type Date Time Source
WMKJ Decoded METAR 2019/06/27 04:00 UTC NOAA

Johore Bharu / Senai, Malaysia (WMKJ) 01-38N 103-40E 40M
Jun 27, 2019 - 12:00 AM EDT / 2019.06.27 0400 UTC
Wind: from the SSW (210 degrees) at 5 MPH (4 KT) (direction variable):0
Visibility: greater than 7 mile(s):0
Sky conditions: mostly cloudy
Weather: Cumulonimbus clouds observed
Temperature: 87 F (31 C)
Heat index: 102.4 F (39.1 C):1
Dew Point: 80 F (27 C)
Relative Humidity: 79%
Pressure (altimeter): 29.85 in. Hg (1011 hPa)
ob: WMKJ 270400Z 21004KT 160V320 9999 FEW017CB SCT140 BKN280 31/27 Q1011
cycle: 4

Station Type Date Time Source
WMKJ TAF 2019/06/26 18:12 UTC NOAA

TAF TAF WMKJ 261700Z 2618/2718 VRB02KT 9999 FEW022
BECMG 2618/2620 5000 BR FEW010 PROB30
TEMPO 2700/2704 28010KT 4000 TSRA FEW010 FEW016CB SCT018
BECMG 2705/2706 19005KT 9999 NSW FEW020

Example: see airport list